createdAt,value
2019-03-01T00:00:51.724Z,9.20
2019-03-01T00:03:39.713Z,9.20
2019-03-01T00:09:43.468Z,9.20
2019-03-01T00:12:50.685Z,9.30
2019-03-01T00:15:31.448Z,9.30
2019-03-01T00:21:21.139Z,9.40
2019-03-01T00:24:12.540Z,9.40
2019-03-01T00:27:05.105Z,9.30
2019-03-01T00:30:12.339Z,9.30
2019-03-01T00:33:02.929Z,9.30
2019-03-01T00:35:54.585Z,9.20
2019-03-01T00:39:01.864Z,9.20
2019-03-01T00:42:09.371Z,9.20
2019-03-01T00:44:57.347Z,9.20
2019-03-01T00:47:45.360Z,9.20
2019-03-01T00:50:33.452Z,9.20
2019-03-01T00:53:21.491Z,9.20
2019-03-01T00:56:09.468Z,9.10
2019-03-01T00:58:57.820Z,9.10
2019-03-01T01:01:45.865Z,9.10
2019-03-01T01:04:33.956Z,9.10
2019-03-01T01:07:21.946Z,9.10
2019-03-01T01:10:09.994Z,9.10
2019-03-01T01:12:57.963Z,9.10
2019-03-01T01:15:39.372Z,9.00
2019-03-01T01:18:19.708Z,9.00
2019-03-01T01:21:00.390Z,9.00
2019-03-01T01:23:44.385Z,8.90
2019-03-01T01:26:25.162Z,9.00
2019-03-01T01:29:06.122Z,9.10
2019-03-01T01:31:47.220Z,9.10
2019-03-01T01:34:27.735Z,9.10
2019-03-01T01:37:08.834Z,9.10
2019-03-01T01:39:49.812Z,9.00
2019-03-01T01:42:30.917Z,9.10
2019-03-01T01:45:11.686Z,9.00
2019-03-01T01:47:52.585Z,9.10
2019-03-01T01:50:33.152Z,9.10
2019-03-01T01:53:13.825Z,9.10
2019-03-01T01:55:54.544Z,9.10
2019-03-01T01:58:35.169Z,9.20
2019-03-01T02:01:16.169Z,9.20
2019-03-01T02:03:56.940Z,9.10
2019-03-01T02:06:37.814Z,9.10
2019-03-01T02:09:19.337Z,9.20
2019-03-01T02:12:00.314Z,9.30
2019-03-01T02:14:40.961Z,9.30
2019-03-01T02:17:22.036Z,9.30
2019-03-01T02:20:02.608Z,9.30
2019-03-01T02:22:43.477Z,9.20
2019-03-01T02:25:24.700Z,9.20
2019-03-01T02:28:05.405Z,9.20
2019-03-01T02:30:46.489Z,9.10
2019-03-01T02:33:27.225Z,9.10
2019-03-01T02:36:07.973Z,9.10
2019-03-01T02:38:49.003Z,9.10
2019-03-01T02:41:29.667Z,9.10
2019-03-01T02:43:58.765Z,9.00
2019-03-01T02:46:39.705Z,9.00
2019-03-01T02:49:20.525Z,9.00
2019-03-01T02:52:01.338Z,8.90
2019-03-01T02:54:41.778Z,9.00
2019-03-01T02:57:22.409Z,8.90
2019-03-01T03:00:03.164Z,8.90
2019-03-01T03:02:44.028Z,8.80
2019-03-01T03:05:24.697Z,8.80
2019-03-01T03:08:07.466Z,8.80
2019-03-01T03:10:48.292Z,8.80
2019-03-01T03:13:29.385Z,8.70
2019-03-01T03:16:10.153Z,8.70
2019-03-01T03:18:51.046Z,8.70
2019-03-01T03:21:31.769Z,8.70
2019-03-01T03:24:12.282Z,8.60
2019-03-01T03:26:53.093Z,8.60
2019-03-01T03:29:33.897Z,8.60
2019-03-01T03:32:14.741Z,8.60
2019-03-01T03:34:55.424Z,8.60
2019-03-01T03:37:35.957Z,8.50
2019-03-01T03:40:16.770Z,8.60
2019-03-01T03:42:57.507Z,8.60
2019-03-01T03:45:38.173Z,8.50
2019-03-01T03:48:18.900Z,8.50
2019-03-01T03:50:59.538Z,8.50
2019-03-01T03:53:40.419Z,8.50
2019-03-01T03:56:21.666Z,8.40
2019-03-01T03:59:02.344Z,8.50
2019-03-01T04:01:43.470Z,8.40
2019-03-01T04:04:24.427Z,8.40
2019-03-01T04:07:05.640Z,8.50
2019-03-01T04:09:46.282Z,8.40
2019-03-01T04:12:27.261Z,8.40
2019-03-01T04:15:07.869Z,8.30
2019-03-01T04:17:48.501Z,8.30
2019-03-01T04:20:29.563Z,8.30
2019-03-01T04:23:09.875Z,8.20
2019-03-01T04:25:50.629Z,8.20
2019-03-01T04:28:31.456Z,8.30
2019-03-01T04:31:11.936Z,8.30
2019-03-01T04:33:52.471Z,8.30
2019-03-01T04:36:33.044Z,8.20
2019-03-01T04:39:13.385Z,8.30
2019-03-01T04:41:54.288Z,8.30
2019-03-01T04:44:34.966Z,8.30
2019-03-01T04:47:15.893Z,8.30
2019-03-01T04:49:57.136Z,8.30
2019-03-01T04:52:38.321Z,8.30
2019-03-01T04:55:19.025Z,8.30
2019-03-01T04:58:00.031Z,8.20
2019-03-01T05:00:41.096Z,8.20
2019-03-01T05:03:22.178Z,8.20
2019-03-01T05:06:03.332Z,8.20
2019-03-01T05:08:44.252Z,8.20
2019-03-01T05:11:24.808Z,8.20
2019-03-01T05:14:05.939Z,8.20
2019-03-01T05:16:46.610Z,8.30
2019-03-01T05:19:27.283Z,8.20
2019-03-01T05:22:08.118Z,8.30
2019-03-01T05:24:48.948Z,8.30
2019-03-01T05:27:29.316Z,8.30
2019-03-01T05:30:09.560Z,8.30
2019-03-01T05:32:50.360Z,8.20
2019-03-01T05:35:30.814Z,8.20
2019-03-01T05:38:11.750Z,8.10
2019-03-01T05:40:52.971Z,8.10
2019-03-01T05:43:33.748Z,8.10
2019-03-01T05:46:14.636Z,8.10
2019-03-01T05:48:55.078Z,8.10
2019-03-01T05:51:55.787Z,8.00
2019-03-01T05:54:25.912Z,8.00
2019-03-01T05:57:06.745Z,8.00
2019-03-01T05:59:47.525Z,8.00
2019-03-01T06:02:28.316Z,8.00
2019-03-01T06:05:09.326Z,8.00
2019-03-01T06:07:49.643Z,8.00
2019-03-01T06:10:30.202Z,8.00
2019-03-01T06:13:11.508Z,8.00
2019-03-01T06:15:52.625Z,8.00
2019-03-01T06:18:33.599Z,8.00
2019-03-01T06:21:14.641Z,8.10
2019-03-01T06:23:55.544Z,8.10
2019-03-01T06:26:36.148Z,8.00
2019-03-01T06:29:16.829Z,8.10
2019-03-01T06:31:57.524Z,8.10
2019-03-01T06:34:38.304Z,8.10
2019-03-01T06:37:19.311Z,8.10
2019-03-01T06:42:56.831Z,8.10
2019-03-01T06:45:37.596Z,8.00
2019-03-01T06:51:31.772Z,8.10
2019-03-01T06:54:12.358Z,8.10
2019-03-01T06:56:52.784Z,8.10
2019-03-01T06:59:33.275Z,8.10
2019-03-01T07:02:17.295Z,8.10
2019-03-01T07:04:58.570Z,8.20
2019-03-01T07:07:39.229Z,8.30
2019-03-01T07:10:20.155Z,8.30
2019-03-01T07:13:01.274Z,8.30
2019-03-01T07:15:42.111Z,8.30
2019-03-01T07:18:22.962Z,8.30
2019-03-01T07:21:04.158Z,8.30
2019-03-01T07:23:44.656Z,8.30
2019-03-01T07:26:25.307Z,8.30
2019-03-01T07:29:05.811Z,8.30
2019-03-01T07:31:46.472Z,8.30
2019-03-01T07:34:27.013Z,8.30
2019-03-01T07:37:08.133Z,8.40
2019-03-01T07:39:48.816Z,8.50
2019-03-01T07:42:29.425Z,8.60
2019-03-01T07:45:10.379Z,8.60
2019-03-01T07:47:51.220Z,8.70
2019-03-01T07:50:32.025Z,8.80
2019-03-01T07:53:12.590Z,8.80
2019-03-01T07:55:53.469Z,8.80
2019-03-01T07:58:34.472Z,8.90
2019-03-01T08:01:15.374Z,8.90
2019-03-01T08:03:56.264Z,8.90
2019-03-01T08:06:37.401Z,9.00
2019-03-01T08:09:18.324Z,9.00
2019-03-01T08:11:59.355Z,9.10
2019-03-01T08:14:40.370Z,9.20
2019-03-01T08:17:20.931Z,9.20
2019-03-01T08:20:01.846Z,9.30
2019-03-01T08:22:48.696Z,9.40
2019-03-01T08:25:25.312Z,9.40
2019-03-01T08:28:06.224Z,9.50
2019-03-01T08:30:46.950Z,9.70
2019-03-01T08:33:27.886Z,9.80
2019-03-01T08:36:08.309Z,10.00
2019-03-01T08:41:48.571Z,9.90
2019-03-01T08:44:29.183Z,9.90
2019-03-01T08:47:09.514Z,9.80
2019-03-01T08:49:50.201Z,9.70
2019-03-01T08:52:30.929Z,9.70
2019-03-01T08:55:11.645Z,9.60
2019-03-01T08:57:52.937Z,9.60
2019-03-01T09:00:33.528Z,9.60
2019-03-01T09:03:17.244Z,9.70
2019-03-01T09:05:57.135Z,9.80
2019-03-01T09:08:38.094Z,10.00
2019-03-01T09:11:19.106Z,10.20
2019-03-01T09:13:59.640Z,10.30
2019-03-01T09:16:41.081Z,10.30
2019-03-01T09:19:25.057Z,10.30
2019-03-01T09:22:05.432Z,10.30
2019-03-01T09:24:46.197Z,10.30
2019-03-01T09:27:30.107Z,10.30
2019-03-01T09:29:59.456Z,10.50
2019-03-01T09:32:47.413Z,10.70
2019-03-01T09:35:54.464Z,10.80
2019-03-01T09:38:42.929Z,10.90
2019-03-01T09:41:32.210Z,11.10
2019-03-01T09:44:20.179Z,11.10
2019-03-01T09:47:02.520Z,11.20
2019-03-01T09:49:43.070Z,11.20
2019-03-01T09:52:24.531Z,11.20
2019-03-01T09:55:05.582Z,11.40
2019-03-01T09:57:46.510Z,11.40
2019-03-01T10:00:27.233Z,11.40
2019-03-01T10:03:07.872Z,11.30
2019-03-01T10:05:48.815Z,11.20
2019-03-01T10:08:29.665Z,11.20
2019-03-01T10:11:10.474Z,11.30
2019-03-01T10:13:51.012Z,11.50
2019-03-01T10:16:31.973Z,11.60
2019-03-01T10:19:13.240Z,11.60
2019-03-01T10:21:53.969Z,11.70
2019-03-01T10:24:35.241Z,11.70
2019-03-01T10:27:15.583Z,11.70
2019-03-01T10:29:56.180Z,11.70
2019-03-01T10:32:37.069Z,11.60
2019-03-01T10:35:17.988Z,11.30
2019-03-01T10:37:58.886Z,11.10
2019-03-01T10:40:39.820Z,11.10
2019-03-01T10:43:20.842Z,11.00
2019-03-01T10:46:01.685Z,11.20
2019-03-01T10:48:42.472Z,11.30
2019-03-01T10:51:23.121Z,11.50
2019-03-01T10:54:03.672Z,11.70
2019-03-01T10:56:44.607Z,11.80
2019-03-01T10:59:25.063Z,11.80
2019-03-01T11:02:05.709Z,11.90
2019-03-01T11:04:46.653Z,12.00
2019-03-01T11:07:27.450Z,12.00
2019-03-01T11:10:08.111Z,12.00
2019-03-01T11:12:48.603Z,12.10
2019-03-01T11:15:29.230Z,12.10
2019-03-01T11:18:10.123Z,12.10
2019-03-01T11:20:50.573Z,12.00
2019-03-01T11:23:31.256Z,11.90
2019-03-01T11:26:12.128Z,11.70
2019-03-01T11:28:52.723Z,11.60
2019-03-01T11:31:33.382Z,11.50
2019-03-01T11:34:14.067Z,11.40
2019-03-01T11:36:54.888Z,11.20
2019-03-01T11:39:35.347Z,11.30
2019-03-01T11:42:16.222Z,11.30
2019-03-01T11:44:57.366Z,11.30
2019-03-01T11:47:38.108Z,11.20
2019-03-01T11:50:20.525Z,11.20
2019-03-01T11:53:02.114Z,11.30
2019-03-01T11:55:43.223Z,11.40
2019-03-01T11:58:23.977Z,11.60
2019-03-01T12:01:04.645Z,11.70
2019-03-01T12:03:45.550Z,11.50
2019-03-01T12:06:26.045Z,11.20
2019-03-01T12:09:06.966Z,11.10
2019-03-01T12:11:47.752Z,11.00
2019-03-01T12:14:28.889Z,11.00
2019-03-01T12:17:09.754Z,11.00
2019-03-01T12:19:50.544Z,11.00
2019-03-01T12:22:31.315Z,11.00
2019-03-01T12:25:11.773Z,11.00
2019-03-01T12:27:52.737Z,10.90
2019-03-01T12:30:33.357Z,10.80
2019-03-01T12:33:14.430Z,10.80
2019-03-01T12:35:55.404Z,10.70
2019-03-01T12:38:36.165Z,10.70
2019-03-01T12:41:18.260Z,10.80
2019-03-01T12:43:59.377Z,10.70
2019-03-01T12:46:29.708Z,10.80
2019-03-01T12:49:14.292Z,10.80
2019-03-01T12:51:54.998Z,10.70
2019-03-01T12:54:37.700Z,10.80
2019-03-01T12:57:18.524Z,10.80
2019-03-01T12:59:59.294Z,10.90
2019-03-01T13:02:39.665Z,10.90
2019-03-01T13:05:20.564Z,11.00
2019-03-01T13:08:00.900Z,11.00
2019-03-01T13:10:41.723Z,11.10
2019-03-01T13:13:22.601Z,11.20
2019-03-01T13:16:03.120Z,11.20
2019-03-01T13:18:43.817Z,11.20
2019-03-01T13:21:24.561Z,11.20
2019-03-01T13:24:05.315Z,11.20
2019-03-01T13:26:46.170Z,11.30
2019-03-01T13:29:27.038Z,11.20
2019-03-01T13:32:08.100Z,11.20
2019-03-01T13:34:49.525Z,11.20
2019-03-01T13:37:20.342Z,11.20
2019-03-01T13:39:49.612Z,11.20
2019-03-01T13:42:37.607Z,11.20
2019-03-01T13:45:25.694Z,11.20
2019-03-01T13:48:06.752Z,11.30
2019-03-01T13:50:47.498Z,11.20
2019-03-01T13:53:30.233Z,11.30
2019-03-01T13:56:10.973Z,11.30
2019-03-01T13:58:51.627Z,11.30
2019-03-01T14:01:32.219Z,11.30
2019-03-01T14:04:12.954Z,11.30
2019-03-01T14:06:53.932Z,11.30
2019-03-01T14:09:34.845Z,11.30
2019-03-01T14:12:15.450Z,11.20
2019-03-01T14:14:59.282Z,11.10
2019-03-01T14:17:38.953Z,11.00
2019-03-01T14:20:21.107Z,11.00
2019-03-01T14:23:02.556Z,10.90
2019-03-01T14:25:43.332Z,10.90
2019-03-01T14:28:24.140Z,10.80
2019-03-01T14:31:07.512Z,10.60
2019-03-01T14:33:47.853Z,10.50
2019-03-01T14:36:29.137Z,10.40
2019-03-01T14:39:09.798Z,10.30
2019-03-01T14:41:50.372Z,10.30
2019-03-01T14:44:33.834Z,10.30
2019-03-01T14:47:13.904Z,10.30
2019-03-01T14:49:57.661Z,10.20
2019-03-01T14:52:37.588Z,10.30
2019-03-01T14:55:19.831Z,10.30
2019-03-01T14:58:01.208Z,10.40
2019-03-01T15:00:41.589Z,10.50
2019-03-01T15:03:22.287Z,10.50
2019-03-01T15:06:02.939Z,10.40
2019-03-01T15:08:44.995Z,10.50
2019-03-01T15:11:25.812Z,10.40
2019-03-01T15:14:12.137Z,10.40
2019-03-01T15:16:50.117Z,10.40
2019-03-01T15:19:30.793Z,10.30
2019-03-01T15:22:13.026Z,10.30
2019-03-01T15:24:54.345Z,10.20
2019-03-01T15:27:39.734Z,10.20
2019-03-01T15:30:17.758Z,10.10
2019-03-01T15:32:58.430Z,10.00
2019-03-01T15:35:39.782Z,10.00
2019-03-01T15:38:23.916Z,10.00
2019-03-01T15:41:06.337Z,9.90
2019-03-01T15:43:46.361Z,9.90
2019-03-01T15:46:27.101Z,9.90
2019-03-01T15:49:08.043Z,10.00
2019-03-01T15:51:48.990Z,10.00
2019-03-01T15:54:32.450Z,10.00
2019-03-01T15:57:00.565Z,10.00
2019-03-01T15:59:48.940Z,10.00
2019-03-01T16:02:37.133Z,10.00
2019-03-01T16:05:25.153Z,9.90
2019-03-01T16:08:13.146Z,9.90
2019-03-01T16:11:01.126Z,9.80
2019-03-01T16:13:49.453Z,9.70
2019-03-01T16:16:38.775Z,9.70
2019-03-01T16:19:26.793Z,9.60
2019-03-01T16:22:15.470Z,9.60
2019-03-01T16:25:07.171Z,9.60
2019-03-01T16:27:55.137Z,9.50
2019-03-01T16:30:44.744Z,9.40
2019-03-01T16:33:32.719Z,9.50
2019-03-01T16:39:35.156Z,9.40
2019-03-01T16:42:23.705Z,9.30
2019-03-01T16:45:12.004Z,9.30
2019-03-01T16:48:00.929Z,9.30
2019-03-01T16:50:43.903Z,9.20
2019-03-01T16:53:25.031Z,9.20
2019-03-01T16:56:05.785Z,9.20
2019-03-01T16:58:46.557Z,9.20
2019-03-01T17:01:29.783Z,9.10
2019-03-01T17:04:10.355Z,9.10
2019-03-01T17:06:50.775Z,9.10
2019-03-01T17:09:31.609Z,9.00
2019-03-01T17:12:13.897Z,9.00
2019-03-01T17:14:55.332Z,9.00
2019-03-01T17:17:36.913Z,9.00
2019-03-01T17:20:18.887Z,9.00
2019-03-01T17:23:03.139Z,9.00
2019-03-01T17:25:42.144Z,9.00
2019-03-01T17:28:26.520Z,8.90
2019-03-01T17:31:05.805Z,8.90
2019-03-01T17:33:48.825Z,8.90
2019-03-01T17:36:29.085Z,8.90
2019-03-01T17:39:09.785Z,8.90
2019-03-01T17:41:50.524Z,8.90
2019-03-01T17:44:34.776Z,8.90
2019-03-01T17:47:16.174Z,8.90
2019-03-01T17:49:57.291Z,8.80
2019-03-01T17:52:37.976Z,8.80
2019-03-01T17:55:18.861Z,8.70
2019-03-01T17:57:59.432Z,8.70
2019-03-01T18:00:40.176Z,8.60
2019-03-01T18:03:20.874Z,8.60
2019-03-01T18:06:01.578Z,8.60
2019-03-01T18:08:42.025Z,8.60
2019-03-01T18:11:23.081Z,8.60
2019-03-01T18:14:04.015Z,8.60
2019-03-01T18:16:44.711Z,8.50
2019-03-01T18:19:26.789Z,8.50
2019-03-01T18:22:08.299Z,8.50
2019-03-01T18:24:49.962Z,8.50
2019-03-01T18:27:31.855Z,8.50
2019-03-01T18:30:16.037Z,8.50
2019-03-01T18:32:55.857Z,8.60
2019-03-01T18:35:36.502Z,8.60
2019-03-01T18:38:17.318Z,8.60
2019-03-01T18:40:58.766Z,8.60
2019-03-01T18:43:39.840Z,8.60
2019-03-01T18:46:21.265Z,8.60
2019-03-01T18:49:02.475Z,8.60
2019-03-01T18:51:43.968Z,8.60
2019-03-01T18:54:25.181Z,8.70
2019-03-01T18:57:05.751Z,8.60
2019-03-01T18:59:46.392Z,8.60
2019-03-01T19:02:28.460Z,8.60
2019-03-01T19:05:08.836Z,8.70
2019-03-01T19:07:49.393Z,8.70
2019-03-01T19:10:29.912Z,8.70
2019-03-01T19:13:12.463Z,8.70
2019-03-01T19:15:54.746Z,8.70
2019-03-01T19:18:35.505Z,8.70
2019-03-01T19:21:17.304Z,8.70
2019-03-01T19:23:58.848Z,8.60
2019-03-01T19:26:39.568Z,8.60
2019-03-01T19:29:20.549Z,8.60
2019-03-01T19:32:01.113Z,8.60
2019-03-01T19:34:41.704Z,8.60
2019-03-01T19:37:22.385Z,8.50
2019-03-01T19:40:03.351Z,8.50
2019-03-01T19:42:44.058Z,8.50
2019-03-01T19:45:24.677Z,8.50
2019-03-01T19:48:05.292Z,8.40
2019-03-01T19:50:46.717Z,8.40
2019-03-01T19:53:28.068Z,8.40
2019-03-01T19:56:08.787Z,8.40
2019-03-01T19:58:49.304Z,8.40
2019-03-01T20:01:29.938Z,8.30
2019-03-01T20:04:17.803Z,8.30
2019-03-01T20:06:57.668Z,8.20
2019-03-01T20:09:39.721Z,8.20
2019-03-01T20:12:21.686Z,8.20
2019-03-01T20:15:02.779Z,8.10
2019-03-01T20:17:44.596Z,8.00
2019-03-01T20:20:25.411Z,8.00
2019-03-01T20:23:06.143Z,8.00
2019-03-01T20:25:47.538Z,7.90
2019-03-01T20:28:29.583Z,7.90
2019-03-01T20:31:10.502Z,7.90
2019-03-01T20:33:51.124Z,7.80
2019-03-01T20:36:31.956Z,7.80
2019-03-01T20:39:15.635Z,7.70
2019-03-01T20:41:55.189Z,7.70
2019-03-01T20:44:35.527Z,7.70
2019-03-01T20:47:18.367Z,7.60
2019-03-01T20:49:59.211Z,7.60
2019-03-01T20:52:39.767Z,7.60
2019-03-01T20:55:20.624Z,7.60
2019-03-01T20:58:03.058Z,7.60
2019-03-01T21:00:44.380Z,7.60
2019-03-01T21:03:29.792Z,7.60
2019-03-01T21:06:08.013Z,7.50
2019-03-01T21:08:48.812Z,7.50
2019-03-01T21:11:29.564Z,7.50
2019-03-01T21:14:10.504Z,7.50
2019-03-01T21:16:50.963Z,7.50
2019-03-01T21:19:31.916Z,7.50
2019-03-01T21:22:12.968Z,7.40
2019-03-01T21:24:53.696Z,7.50
2019-03-01T21:27:34.613Z,7.50
2019-03-01T21:30:03.812Z,7.40
2019-03-01T21:32:51.880Z,7.40
2019-03-01T21:35:39.868Z,7.40
2019-03-01T21:38:27.817Z,7.40
2019-03-01T21:41:15.767Z,7.40
2019-03-01T21:44:03.801Z,7.40
2019-03-01T21:46:51.795Z,7.40
2019-03-01T21:49:32.714Z,7.30
2019-03-01T21:52:13.435Z,7.30
2019-03-01T21:54:54.387Z,7.40
2019-03-01T21:57:34.708Z,7.30
2019-03-01T22:00:15.230Z,7.40
2019-03-01T22:02:55.740Z,7.30
2019-03-01T22:05:36.552Z,7.30
2019-03-01T22:08:17.422Z,7.20
2019-03-01T22:10:57.865Z,7.20
2019-03-01T22:13:38.359Z,7.20
2019-03-01T22:16:18.898Z,7.20
2019-03-01T22:28:36.231Z,7.10
2019-03-01T22:31:17.695Z,7.10
2019-03-01T22:33:58.335Z,7.10
2019-03-01T22:36:39.175Z,7.10
2019-03-01T22:39:20.159Z,7.10
2019-03-01T22:42:00.891Z,7.00
2019-03-01T22:44:43.757Z,7.00
2019-03-01T22:47:24.485Z,7.00
2019-03-01T22:50:06.946Z,7.00
2019-03-01T22:52:48.683Z,7.00
2019-03-01T22:55:29.820Z,7.00
2019-03-01T22:58:11.028Z,7.00
2019-03-01T23:01:11.433Z,7.00
2019-03-01T23:03:54.812Z,7.00
2019-03-01T23:06:34.815Z,6.90
2019-03-01T23:09:17.130Z,6.90
2019-03-01T23:11:57.814Z,6.90
2019-03-01T23:14:38.841Z,6.90
2019-03-01T23:17:19.574Z,6.90
2019-03-01T23:20:00.236Z,6.90
2019-03-01T23:22:42.731Z,7.00
2019-03-01T23:25:23.754Z,6.90
2019-03-01T23:28:08.030Z,6.90
2019-03-01T23:30:47.457Z,6.90
2019-03-01T23:33:31.651Z,6.90
2019-03-01T23:36:11.084Z,6.90
2019-03-01T23:44:52.467Z,7.00
2019-03-01T23:47:34.739Z,6.90
2019-03-01T23:50:16.107Z,6.80
2019-03-01T23:52:58.709Z,6.90
2019-03-01T23:55:39.442Z,6.90
2019-03-01T23:58:20.212Z,6.80
